createdAt,value
2019-02-20T00:00:18.895Z,7.17
2019-02-20T00:02:47.537Z,7.83
2019-02-20T00:05:16.182Z,7.67
2019-02-20T00:07:44.648Z,8.40
2019-02-20T00:10:13.274Z,7.70
2019-02-20T00:12:42.010Z,7.63
2019-02-20T00:15:10.621Z,7.33
2019-02-20T00:17:58.527Z,7.53
2019-02-20T00:20:27.104Z,8.00
2019-02-20T00:22:55.575Z,9.33
2019-02-20T00:25:24.046Z,8.83
2019-02-20T00:27:52.677Z,8.30
2019-02-20T00:30:21.208Z,7.90
2019-02-20T00:32:49.670Z,8.33
2019-02-20T00:35:18.172Z,7.40
2019-02-20T00:37:46.655Z,7.27
2019-02-20T00:40:15.118Z,7.73
2019-02-20T00:42:43.606Z,8.30
2019-02-20T00:45:17.724Z,7.77
2019-02-20T00:47:50.882Z,7.43
2019-02-20T00:50:21.090Z,7.27
2019-02-20T00:52:51.287Z,6.97
2019-02-20T00:55:19.773Z,7.20
2019-02-20T00:57:48.316Z,6.80
2019-02-20T01:00:16.871Z,7.43
2019-02-20T01:02:45.411Z,7.33
2019-02-20T01:05:14.016Z,6.63
2019-02-20T01:07:42.543Z,7.30
2019-02-20T01:10:11.368Z,7.03
2019-02-20T01:12:39.886Z,7.47
2019-02-20T01:15:10.703Z,6.93
2019-02-20T01:17:39.295Z,6.40
2019-02-20T01:20:09.638Z,6.37
2019-02-20T01:22:38.133Z,6.93
2019-02-20T01:25:07.203Z,6.50
2019-02-20T01:27:35.697Z,6.87
2019-02-20T01:30:06.779Z,6.70
2019-02-20T01:32:35.406Z,6.90
2019-02-20T01:35:04.480Z,6.77
2019-02-20T01:37:32.966Z,7.07
2019-02-20T01:40:01.429Z,6.70
2019-02-20T01:42:30.055Z,6.23
2019-02-20T01:44:58.511Z,6.67
2019-02-20T01:47:26.999Z,6.43
2019-02-20T01:49:55.531Z,6.77
2019-02-20T01:52:24.020Z,6.27
2019-02-20T01:54:52.623Z,6.77
2019-02-20T01:57:21.127Z,6.93
2019-02-20T01:59:49.587Z,6.43
2019-02-20T02:02:18.128Z,6.80
2019-02-20T02:04:46.750Z,6.37
2019-02-20T02:07:15.213Z,6.73
2019-02-20T02:09:43.779Z,6.80
2019-02-20T02:12:12.375Z,6.40
2019-02-20T02:14:40.875Z,6.50
2019-02-20T02:17:09.368Z,6.60
2019-02-20T02:19:37.875Z,7.13
2019-02-20T02:22:06.443Z,6.70
2019-02-20T02:24:34.971Z,6.63
2019-02-20T02:27:03.543Z,7.27
2019-02-20T02:29:32.118Z,6.77
2019-02-20T02:32:00.633Z,6.57
2019-02-20T02:34:29.171Z,6.67
2019-02-20T02:36:57.640Z,6.07
2019-02-20T02:39:26.129Z,6.40
2019-02-20T02:41:54.768Z,6.20
2019-02-20T02:44:23.329Z,6.53
2019-02-20T02:46:51.969Z,6.23
2019-02-20T02:49:20.517Z,6.43
2019-02-20T02:51:49.048Z,6.40
2019-02-20T02:54:17.534Z,6.57
2019-02-20T02:56:45.994Z,6.63
2019-02-20T02:59:14.482Z,6.87
2019-02-20T03:01:42.949Z,6.20
2019-02-20T03:04:11.445Z,6.73
2019-02-20T03:06:40.047Z,6.20
2019-02-20T03:09:09.404Z,6.30
2019-02-20T03:11:37.963Z,5.77
2019-02-20T03:14:06.693Z,6.50
2019-02-20T03:16:35.242Z,6.53
2019-02-20T03:19:03.838Z,6.80
2019-02-20T03:21:32.318Z,6.50
2019-02-20T03:24:00.854Z,6.70
2019-02-20T03:26:48.739Z,6.67
2019-02-20T03:29:17.224Z,6.60
2019-02-20T03:31:45.803Z,6.90
2019-02-20T03:34:14.354Z,6.53
2019-02-20T03:36:42.889Z,5.90
2019-02-20T03:39:11.443Z,7.13
2019-02-20T03:41:39.909Z,7.07
2019-02-20T03:44:08.467Z,6.20
2019-02-20T03:46:36.947Z,6.37
2019-02-20T03:49:05.475Z,7.03
2019-02-20T03:51:33.974Z,6.40
2019-02-20T03:54:02.575Z,5.80
2019-02-20T03:56:31.270Z,6.23
2019-02-20T03:59:00.155Z,5.93
2019-02-20T04:01:28.630Z,6.70
2019-02-20T04:03:57.188Z,6.00
2019-02-20T04:06:25.651Z,5.97
2019-02-20T04:08:54.111Z,5.60
2019-02-20T04:11:22.623Z,6.23
2019-02-20T04:13:51.086Z,5.90
2019-02-20T04:16:19.722Z,6.10
2019-02-20T04:18:48.370Z,5.77
2019-02-20T04:21:16.823Z,5.90
2019-02-20T04:23:45.304Z,6.27
2019-02-20T04:26:13.796Z,6.67
2019-02-20T04:28:42.290Z,6.00
2019-02-20T04:31:10.788Z,5.93
2019-02-20T04:33:39.331Z,5.90
2019-02-20T04:36:07.803Z,6.03
2019-02-20T04:38:36.420Z,6.13
2019-02-20T04:41:05.036Z,6.30
2019-02-20T04:43:33.567Z,6.13
2019-02-20T04:46:02.077Z,5.87
2019-02-20T04:48:30.612Z,5.83
2019-02-20T04:50:59.180Z,6.30
2019-02-20T04:53:27.738Z,5.63
2019-02-20T04:55:56.294Z,6.20
2019-02-20T04:58:24.894Z,6.03
2019-02-20T05:00:53.537Z,6.00
2019-02-20T05:03:23.218Z,6.00
2019-02-20T05:05:51.868Z,6.20
2019-02-20T05:08:20.411Z,6.47
2019-02-20T05:10:48.966Z,6.53
2019-02-20T05:13:17.427Z,6.07
2019-02-20T05:15:45.998Z,5.97
2019-02-20T05:18:14.632Z,6.50
2019-02-20T05:20:43.194Z,6.13
2019-02-20T05:23:11.753Z,6.80
2019-02-20T05:25:40.235Z,6.67
2019-02-20T05:28:08.702Z,6.33
2019-02-20T05:30:37.238Z,5.90
2019-02-20T05:33:05.740Z,6.90
2019-02-20T05:35:34.269Z,6.83
2019-02-20T05:38:02.973Z,6.93
2019-02-20T05:40:31.507Z,6.53
2019-02-20T05:43:00.071Z,6.77
2019-02-20T05:45:28.526Z,6.13
2019-02-20T05:47:57.027Z,6.67
2019-02-20T05:50:25.492Z,6.67
2019-02-20T05:52:54.044Z,6.93
2019-02-20T05:55:22.539Z,7.33
2019-02-20T05:57:51.068Z,7.07
2019-02-20T06:00:19.699Z,7.10
2019-02-20T06:02:48.239Z,6.77
2019-02-20T06:05:16.832Z,6.73
2019-02-20T06:07:45.432Z,6.73
2019-02-20T06:10:14.106Z,7.80
2019-02-20T06:12:42.632Z,7.53
2019-02-20T06:15:30.543Z,7.13
2019-02-20T06:17:59.013Z,7.23
2019-02-20T06:20:27.604Z,7.00
2019-02-20T06:22:56.210Z,7.70
2019-02-20T06:25:24.792Z,7.10
2019-02-20T06:27:53.363Z,7.50
2019-02-20T06:30:21.861Z,7.40
2019-02-20T06:32:50.401Z,7.20
2019-02-20T06:35:18.935Z,7.30
2019-02-20T06:37:47.506Z,7.80
2019-02-20T06:40:16.035Z,8.03
2019-02-20T06:42:44.527Z,6.77
2019-02-20T06:45:13.233Z,8.03
2019-02-20T06:47:41.796Z,8.60
2019-02-20T06:50:10.326Z,8.07
2019-02-20T06:52:38.820Z,8.47
2019-02-20T06:55:10.515Z,7.83
2019-02-20T06:57:39.003Z,7.00
2019-02-20T07:00:10.532Z,8.00
2019-02-20T07:02:39.030Z,7.50
2019-02-20T07:05:30.145Z,7.17
2019-02-20T07:08:18.495Z,7.63
2019-02-20T07:11:06.410Z,7.47
2019-02-20T07:13:57.624Z,7.27
2019-02-20T07:16:52.864Z,6.73
2019-02-20T07:19:27.086Z,6.87
2019-02-20T07:22:10.543Z,7.27
2019-02-20T07:24:50.972Z,6.97
2019-02-20T07:27:28.229Z,6.43
2019-02-20T07:30:01.322Z,7.03
2019-02-20T07:32:30.522Z,6.73
2019-02-20T07:34:59.080Z,6.40
2019-02-20T07:37:27.607Z,7.27
2019-02-20T07:39:57.422Z,6.73
2019-02-20T07:42:26.200Z,6.60
2019-02-20T07:44:54.737Z,7.60
2019-02-20T07:47:23.300Z,6.70
2019-02-20T07:49:51.762Z,7.40
2019-02-20T07:52:20.391Z,7.27
2019-02-20T07:54:48.930Z,7.57
2019-02-20T07:57:17.419Z,7.30
2019-02-20T07:59:45.971Z,7.77
2019-02-20T08:02:14.458Z,6.90
2019-02-20T08:04:43.015Z,7.27
2019-02-20T08:07:11.479Z,6.90
2019-02-20T08:09:39.946Z,7.47
2019-02-20T08:12:08.452Z,7.63
2019-02-20T08:14:36.991Z,6.33
2019-02-20T08:17:05.522Z,7.03
2019-02-20T08:19:34.021Z,7.43
2019-02-20T08:22:02.554Z,7.90
2019-02-20T08:24:31.048Z,7.83
2019-02-20T08:26:59.656Z,7.70
2019-02-20T08:29:28.278Z,8.27
2019-02-20T08:31:56.836Z,7.87
2019-02-20T08:34:25.413Z,8.20
2019-02-20T08:36:53.881Z,8.10
2019-02-20T08:39:22.422Z,8.07
2019-02-20T08:41:50.996Z,7.30
2019-02-20T08:44:19.462Z,7.93
2019-02-20T08:46:47.962Z,8.10
2019-02-20T08:49:16.543Z,9.07
2019-02-20T08:51:45.104Z,8.57
2019-02-20T08:54:13.642Z,8.40
2019-02-20T08:56:42.115Z,8.53
2019-02-20T08:59:10.678Z,8.67
2019-02-20T09:01:39.355Z,8.53
2019-02-20T09:04:07.839Z,8.83
2019-02-20T09:06:36.367Z,8.20
2019-02-20T09:09:05.801Z,8.90
2019-02-20T09:11:34.347Z,9.10
2019-02-20T09:14:02.926Z,9.28
2019-02-20T09:16:31.398Z,9.50
2019-02-20T09:18:59.866Z,9.27
2019-02-20T09:21:28.375Z,10.10
2019-02-20T09:23:56.908Z,8.80
2019-02-20T09:26:25.475Z,10.20
2019-02-20T09:28:53.975Z,9.67
2019-02-20T09:31:22.503Z,10.23
2019-02-20T09:33:50.977Z,10.17
2019-02-20T09:36:19.468Z,10.37
2019-02-20T09:38:48.038Z,10.37
2019-02-20T09:41:16.924Z,10.00
2019-02-20T09:43:46.444Z,10.47
2019-02-20T09:46:14.992Z,10.50
2019-02-20T09:48:43.495Z,10.23
2019-02-20T09:51:11.963Z,10.77
2019-02-20T09:53:40.482Z,9.40
2019-02-20T09:56:09.015Z,9.77
2019-02-20T09:58:37.480Z,9.63
2019-02-20T10:01:06.121Z,11.10
2019-02-20T10:03:34.712Z,11.00
2019-02-20T10:06:03.177Z,11.23
2019-02-20T10:08:31.763Z,11.40
2019-02-20T10:11:00.330Z,10.47
2019-02-20T10:13:28.871Z,11.13
2019-02-20T10:15:57.438Z,11.60
2019-02-20T10:18:25.987Z,11.73
2019-02-20T10:20:54.546Z,11.67
2019-02-20T10:23:23.019Z,13.33
2019-02-20T10:26:00.311Z,11.97
2019-02-20T10:28:21.739Z,13.77
2019-02-20T10:30:50.210Z,12.77
2019-02-20T10:33:18.728Z,13.33
2019-02-20T10:35:47.256Z,13.90
2019-02-20T10:38:15.843Z,13.10
2019-02-20T10:40:44.315Z,13.80
2019-02-20T10:43:12.782Z,13.03
2019-02-20T10:45:41.287Z,13.23
2019-02-20T10:48:09.970Z,13.83
2019-02-20T10:50:38.521Z,13.50
2019-02-20T10:53:07.130Z,13.93
2019-02-20T10:55:35.628Z,13.60
2019-02-20T10:58:04.274Z,14.57
2019-02-20T11:00:33.027Z,14.87
2019-02-20T11:03:01.539Z,15.30
2019-02-20T11:05:30.006Z,14.07
2019-02-20T11:07:58.474Z,15.03
2019-02-20T11:10:27.040Z,14.83
2019-02-20T11:12:55.584Z,15.37
2019-02-20T11:15:24.155Z,14.73
2019-02-20T11:17:52.626Z,14.90
2019-02-20T11:20:21.187Z,15.13
2019-02-20T11:22:49.902Z,14.70
2019-02-20T11:25:18.511Z,14.07
2019-02-20T11:27:47.055Z,14.60
2019-02-20T11:30:18.523Z,14.07
2019-02-20T11:32:46.995Z,13.33
2019-02-20T11:35:15.535Z,13.97
2019-02-20T11:37:44.031Z,13.37
2019-02-20T11:40:12.714Z,14.17
2019-02-20T11:42:41.179Z,14.33
2019-02-20T11:45:30.551Z,14.67
2019-02-20T11:47:59.010Z,14.10
2019-02-20T11:50:27.482Z,14.03
2019-02-20T11:52:55.997Z,14.27
2019-02-20T11:55:24.551Z,14.40
2019-02-20T11:58:00.508Z,14.63
2019-02-20T12:00:24.335Z,14.57
2019-02-20T12:02:52.895Z,14.90
2019-02-20T12:05:21.367Z,14.43
2019-02-20T12:07:49.954Z,14.40
2019-02-20T12:10:18.818Z,15.37
2019-02-20T12:12:47.286Z,15.57
2019-02-20T12:15:16.020Z,14.83
2019-02-20T12:17:44.506Z,15.50
2019-02-20T12:20:13.143Z,13.40
2019-02-20T12:22:41.711Z,15.47
2019-02-20T12:25:10.919Z,13.93
2019-02-20T12:27:39.551Z,13.03
2019-02-20T12:30:12.419Z,13.43
2019-02-20T12:32:41.058Z,13.40
2019-02-20T12:35:10.025Z,13.33
2019-02-20T12:37:38.519Z,13.20
2019-02-20T12:40:10.939Z,13.07
2019-02-20T12:42:39.507Z,13.30
2019-02-20T12:45:09.152Z,12.23
2019-02-20T12:47:37.615Z,12.37
2019-02-20T12:50:13.761Z,12.47
2019-02-20T12:53:01.699Z,12.13
2019-02-20T12:55:30.263Z,11.90
2019-02-20T12:57:58.755Z,11.53
2019-02-20T13:00:27.564Z,11.47
2019-02-20T13:02:56.050Z,11.50
2019-02-20T13:05:24.662Z,10.63
2019-02-20T13:07:53.227Z,10.63
2019-02-20T13:10:21.718Z,10.17
2019-02-20T13:12:50.362Z,11.60
2019-02-20T13:15:19.108Z,10.70
2019-02-20T13:17:47.664Z,10.30
2019-02-20T13:20:16.210Z,9.97
2019-02-20T13:22:44.787Z,10.13
2019-02-20T13:25:13.599Z,10.07
2019-02-20T13:27:42.131Z,10.17
2019-02-20T13:30:12.793Z,9.53
2019-02-20T13:32:41.422Z,10.73
2019-02-20T13:35:10.330Z,9.53
2019-02-20T13:37:38.808Z,10.77
2019-02-20T13:40:09.707Z,9.80
2019-02-20T13:42:38.260Z,10.00
2019-02-20T13:45:08.256Z,9.33
2019-02-20T13:47:36.883Z,8.60
2019-02-20T13:50:08.067Z,10.17
2019-02-20T13:52:36.618Z,8.50
2019-02-20T13:55:06.293Z,8.40
2019-02-20T13:57:35.243Z,8.17
2019-02-20T14:00:04.359Z,9.00
2019-02-20T14:02:33.027Z,8.57
2019-02-20T14:05:01.564Z,8.77
2019-02-20T14:07:30.126Z,8.40
2019-02-20T14:09:58.919Z,7.63
2019-02-20T14:12:27.495Z,7.90
2019-02-20T14:14:57.472Z,7.53
2019-02-20T14:17:26.897Z,8.17
2019-02-20T14:19:55.582Z,8.17
2019-02-20T14:22:24.131Z,8.00
2019-02-20T14:24:52.855Z,7.57
2019-02-20T14:27:21.423Z,7.33
2019-02-20T14:29:49.967Z,7.97
2019-02-20T14:32:18.532Z,7.23
2019-02-20T14:34:47.106Z,7.30
2019-02-20T14:37:15.643Z,7.03
2019-02-20T14:39:44.218Z,7.30
2019-02-20T14:42:13.179Z,7.57
2019-02-20T14:44:41.747Z,7.20
2019-02-20T14:47:10.290Z,6.90
2019-02-20T14:49:38.855Z,5.90
2019-02-20T14:52:07.394Z,6.50
2019-02-20T14:54:36.022Z,6.30
2019-02-20T14:57:04.734Z,6.07
2019-02-20T14:59:33.691Z,5.50
2019-02-20T15:02:02.240Z,5.53
2019-02-20T15:04:30.815Z,6.60
2019-02-20T15:06:59.357Z,6.43
2019-02-20T15:09:27.899Z,7.00
2019-02-20T15:11:56.466Z,6.57
2019-02-20T15:14:25.074Z,6.47
2019-02-20T15:16:53.655Z,6.30
2019-02-20T15:19:22.267Z,5.73
2019-02-20T15:21:50.900Z,5.77
2019-02-20T15:24:19.440Z,5.70
2019-02-20T15:26:48.002Z,5.90
2019-02-20T15:29:16.551Z,5.57
2019-02-20T15:31:45.511Z,5.17
2019-02-20T15:34:14.123Z,5.47
2019-02-20T15:36:42.834Z,5.53
2019-02-20T15:39:11.408Z,5.47
2019-02-20T15:41:39.980Z,6.07
2019-02-20T15:44:08.527Z,5.50
2019-02-20T15:46:37.064Z,6.17
2019-02-20T15:49:05.966Z,5.67
2019-02-20T15:51:34.564Z,5.90
2019-02-20T15:54:03.177Z,5.50
2019-02-20T15:56:31.785Z,5.40
2019-02-20T15:59:01.258Z,5.63
2019-02-20T16:01:29.866Z,6.07
2019-02-20T16:03:58.407Z,5.33
2019-02-20T16:06:26.982Z,6.13
2019-02-20T16:08:55.526Z,8.50
2019-02-20T16:11:24.095Z,5.90
2019-02-20T16:13:52.638Z,6.37
2019-02-20T16:16:21.219Z,6.10
2019-02-20T16:18:49.766Z,5.30
2019-02-20T16:21:18.398Z,5.90
2019-02-20T16:23:47.014Z,5.27
2019-02-20T16:26:15.634Z,4.83
2019-02-20T16:28:44.188Z,5.63
2019-02-20T16:31:12.745Z,5.60
2019-02-20T16:33:41.691Z,5.77
2019-02-20T16:36:10.220Z,5.77
2019-02-20T16:38:39.087Z,5.70
2019-02-20T16:41:07.639Z,6.03
2019-02-20T16:43:36.202Z,5.23
2019-02-20T16:46:04.810Z,5.57
2019-02-20T16:48:33.350Z,6.33
2019-02-20T16:51:02.159Z,6.10
2019-02-20T16:53:30.734Z,5.93
2019-02-20T16:55:59.488Z,5.87
2019-02-20T16:58:28.043Z,6.10
2019-02-20T17:00:56.654Z,6.43
2019-02-20T17:03:25.242Z,6.63
2019-02-20T17:05:53.815Z,6.17
2019-02-20T17:08:22.423Z,6.63
2019-02-20T17:10:51.059Z,6.33
2019-02-20T17:13:19.784Z,6.90
2019-02-20T17:15:48.491Z,8.30
2019-02-20T17:18:17.041Z,9.13
2019-02-20T17:20:45.584Z,8.73
2019-02-20T17:23:14.151Z,8.33
2019-02-20T17:25:42.735Z,8.93
2019-02-20T17:28:11.718Z,9.63
2019-02-20T17:30:40.331Z,9.50
2019-02-20T17:33:08.916Z,10.10
2019-02-20T17:35:37.646Z,10.07
2019-02-20T17:38:06.287Z,10.03
2019-02-20T17:40:34.902Z,10.80
2019-02-20T17:43:03.467Z,10.27
2019-02-20T17:45:32.007Z,9.60
2019-02-20T17:48:00.555Z,10.10
2019-02-20T17:50:29.127Z,10.53
2019-02-20T17:52:57.671Z,10.20
2019-02-20T17:55:26.231Z,10.30
2019-02-20T17:57:54.776Z,10.10
2019-02-20T18:00:25.379Z,10.00
2019-02-20T18:02:53.866Z,10.47
2019-02-20T18:05:23.958Z,10.07
2019-02-20T18:07:52.823Z,9.53
2019-02-20T18:10:21.305Z,9.57
2019-02-20T18:12:49.868Z,10.27
2019-02-20T18:15:18.403Z,10.00
2019-02-20T18:17:48.588Z,9.47
2019-02-20T18:20:17.130Z,10.57
2019-02-20T18:22:45.625Z,9.87
2019-02-20T18:25:14.433Z,9.43
2019-02-20T18:27:43.007Z,9.83
2019-02-20T18:30:13.515Z,9.70
2019-02-20T18:32:42.279Z,9.67
2019-02-20T18:35:12.392Z,9.23
2019-02-20T18:37:40.954Z,10.47
2019-02-20T18:40:17.238Z,9.53
2019-02-20T18:42:45.763Z,9.87
2019-02-20T18:45:16.159Z,9.23
2019-02-20T18:47:44.758Z,9.33
2019-02-20T18:50:14.661Z,9.17
2019-02-20T18:52:43.241Z,9.33
2019-02-20T18:55:13.748Z,8.90
2019-02-20T18:57:42.501Z,8.13
2019-02-20T19:00:14.171Z,8.60
2019-02-20T19:02:42.716Z,8.10
2019-02-20T19:05:11.678Z,9.43
2019-02-20T19:07:40.255Z,10.43
2019-02-20T19:10:21.070Z,9.83
2019-02-20T19:13:17.206Z,8.97
2019-02-20T19:15:57.702Z,8.70
2019-02-20T19:18:35.131Z,9.33
2019-02-20T19:21:06.784Z,8.60
2019-02-20T19:24:11.565Z,10.10
2019-02-20T19:26:48.867Z,9.53
2019-02-20T19:29:20.559Z,9.43
2019-02-20T19:31:58.109Z,9.40
2019-02-20T19:34:40.247Z,11.97
2019-02-20T19:37:25.637Z,11.23
2019-02-20T19:40:15.303Z,9.87
2019-02-20T19:42:52.999Z,9.33
2019-02-20T19:45:27.359Z,9.77
2019-02-20T19:48:23.187Z,9.47
2019-02-20T19:51:01.806Z,9.07
2019-02-20T19:53:33.558Z,8.67
2019-02-20T19:56:13.942Z,10.10
2019-02-20T19:59:02.010Z,9.30
2019-02-20T20:01:44.687Z,9.57
2019-02-20T20:04:16.213Z,9.13
2019-02-20T20:07:13.372Z,10.87
2019-02-20T20:10:14.878Z,10.40
2019-02-20T20:13:21.432Z,9.53
2019-02-20T20:16:14.348Z,8.70
2019-02-20T20:19:13.616Z,9.50
2019-02-20T20:22:09.869Z,9.47
2019-02-20T20:24:44.184Z,9.23
2019-02-20T20:27:58.847Z,9.80
2019-02-20T20:30:42.156Z,9.83
2019-02-20T20:33:19.336Z,9.87
2019-02-20T20:35:50.983Z,9.37
2019-02-20T20:38:43.231Z,9.17
2019-02-20T20:41:17.623Z,9.60
2019-02-20T20:44:04.475Z,9.20
2019-02-20T20:46:54.411Z,10.07
2019-02-20T20:49:40.839Z,9.97
2019-02-20T20:52:21.166Z,10.27
2019-02-20T20:55:18.894Z,11.50
2019-02-20T20:58:24.724Z,11.03
2019-02-20T21:01:13.063Z,11.20
2019-02-20T21:04:05.595Z,10.90
2019-02-20T21:06:43.108Z,9.90
2019-02-20T21:09:17.358Z,10.07
2019-02-20T21:11:51.918Z,9.90
2019-02-20T21:14:38.743Z,9.77
2019-02-20T21:17:16.065Z,9.73
2019-02-20T21:19:56.200Z,9.33
2019-02-20T21:22:33.587Z,9.17
2019-02-20T21:25:14.599Z,10.13
2019-02-20T21:28:00.743Z,10.07
2019-02-20T21:30:34.951Z,10.00
2019-02-20T21:33:29.059Z,8.70
2019-02-20T21:36:06.315Z,9.90
2019-02-20T21:39:04.339Z,9.90
2019-02-20T21:41:41.866Z,9.73
2019-02-20T21:44:13.463Z,9.07
2019-02-20T21:47:00.170Z,9.67
2019-02-20T21:49:34.498Z,9.50
2019-02-20T21:52:25.221Z,9.10
2019-02-20T21:55:19.198Z,8.97
2019-02-20T21:57:59.839Z,8.50
2019-02-20T22:01:11.980Z,9.20
2019-02-20T22:04:01.818Z,8.80
2019-02-20T22:06:36.490Z,8.70
2019-02-20T22:09:23.146Z,8.73
2019-02-20T22:12:02.581Z,8.93
2019-02-20T22:14:36.394Z,8.93
2019-02-20T22:17:37.770Z,9.30
2019-02-20T22:20:18.284Z,9.47
2019-02-20T22:23:09.523Z,9.53
2019-02-20T22:25:59.178Z,9.60
2019-02-20T22:28:57.186Z,9.17
2019-02-20T22:31:40.719Z,9.27
2019-02-20T22:34:18.082Z,9.53
2019-02-20T22:37:01.550Z,9.20
2019-02-20T22:39:42.043Z,9.73
2019-02-20T22:42:13.586Z,9.23
2019-02-20T22:45:09.326Z,10.40
2019-02-20T22:47:59.222Z,9.47
2019-02-20T22:50:48.846Z,9.80
2019-02-20T22:53:26.307Z,10.03
2019-02-20T22:56:10.187Z,9.37
2019-02-20T22:58:50.860Z,9.53
2019-02-20T23:01:37.390Z,9.30
2019-02-20T23:04:15.030Z,9.70
2019-02-20T23:07:06.152Z,9.40
2019-02-20T23:09:37.787Z,9.67
2019-02-20T23:15:36.170Z,10.23
2019-02-20T23:18:04.931Z,10.00
2019-02-20T23:20:33.658Z,9.90
2019-02-20T23:23:02.275Z,10.70
2019-02-20T23:25:30.912Z,10.40
2019-02-20T23:27:59.467Z,10.67
2019-02-20T23:30:28.161Z,10.90
2019-02-20T23:32:56.922Z,10.60
2019-02-20T23:35:25.666Z,10.87
2019-02-20T23:37:54.245Z,10.97
2019-02-20T23:40:22.989Z,11.37
2019-02-20T23:42:51.727Z,11.87
2019-02-20T23:45:20.489Z,11.97
2019-02-20T23:47:49.146Z,11.83
2019-02-20T23:50:18.535Z,12.43
2019-02-20T23:52:47.189Z,12.20
2019-02-20T23:55:16.090Z,11.47
2019-02-20T23:57:44.780Z,11.37
